Terminal Aerodrome Forecast
Issued by NWS

Home | Current Version | Previous Version | Text Only | Print | Product List | Glossary Off
Versions: 1 2 3 4 5 6 7 8 9 10 11 12 13 14 15 16 17 18 19 20 21 22 23 24 25 26 27 28 29 30 31 32

000
FTUS43 KGRB 131342 AAA
TAFCWA
TAF AMD
KCWA 131342Z 1314/1412 12009KT 6SM -SN OVC025
     FM131600 09007KT 1 1/2SM -SN SCT008 OVC015
      TEMPO 1316/1319 3/4SM -SN BKN008
     FM131900 04008KT 3SM -SN OVC012
     FM140000 01007KT 4SM BR BKN022
     FM140300 36004KT P6SM SCT035=

USA.gov is the U.S. government's official web portal to all federal, state and local government web resources and services.